Time;durP1;ratioP1;P1;durP2;ratioP2;P2;SDS_P1;SDS_P2;PMS_P1;PMS_P2;Temp;Humidity;BMP_temperature;BMP_pressure;BME280_temperature;BME280_humidity;BME280_pressure;Samples;Min_cycle;Max_cycle;Signal;HPM_P1;HPM_P2
2022/07/31 00:01:11;;;;;;;3.10;2.90;;;19.30;74.70;;;;;;4943257;28;20035;-70
2022/07/31 00:03:37;;;;;;;4.68;3.10;;;19.30;74.50;;;;;;4942050;28;20079;-71
2022/07/31 00:06:03;;;;;;;3.10;2.78;;;19.20;74.20;;;;;;4940308;28;20039;-70
2022/07/31 00:08:29;;;;;;;5.97;2.90;;;19.20;74.60;;;;;;4939935;29;20046;-70
2022/07/31 00:10:54;;;;;;;2.83;2.53;;;19.10;75.20;;;;;;4938580;28;20043;-71
2022/07/31 00:13:20;;;;;;;4.00;2.95;;;19.00;75.80;;;;;;4939624;29;20067;-71
2022/07/31 00:15:46;;;;;;;2.92;2.70;;;19.00;75.90;;;;;;4936104;29;20094;-71
2022/07/31 00:18:12;;;;;;;4.03;2.92;;;18.90;76.20;;;;;;4937775;29;20038;-70
2022/07/31 00:20:38;;;;;;;3.72;3.00;;;18.90;76.70;;;;;;4943222;28;20550;-71
2022/07/31 00:23:04;;;;;;;2.55;2.35;;;18.90;77.00;;;;;;4940500;28;20090;-70
2022/07/31 00:25:30;;;;;;;4.40;3.10;;;18.80;77.40;;;;;;4939190;29;20094;-71
2022/07/31 00:27:56;;;;;;;4.93;2.95;;;18.90;77.50;;;;;;4938306;29;20043;-70
2022/07/31 00:30:23;;;;;;;4.20;2.72;;;18.80;77.60;;;;;;4942537;28;20039;-71
2022/07/31 00:32:48;;;;;;;3.50;3.10;;;18.80;77.90;;;;;;4934494;28;20621;-70
2022/07/31 00:35:15;;;;;;;4.20;2.95;;;18.80;78.00;;;;;;4937741;29;20051;-71
2022/07/31 00:37:43;;;;;;;5.18;3.03;;;18.70;78.20;;;;;;4943327;28;20395;-71
2022/07/31 00:40:11;;;;;;;3.22;2.70;;;18.70;78.50;;;;;;4939618;29;20487;-70
2022/07/31 00:42:38;;;;;;;3.03;2.80;;;18.70;78.70;;;;;;4938935;28;20027;-70
2022/07/31 00:45:04;;;;;;;2.90;2.70;;;18.70;79.10;;;;;;4938646;28;20078;-70
2022/07/31 00:47:30;;;;;;;3.20;2.80;;;18.60;79.30;;;;;;4942807;29;20030;-70
2022/07/31 00:49:56;;;;;;;3.58;2.47;;;18.60;79.90;;;;;;4937242;28;20039;-71
2022/07/31 00:52:22;;;;;;;5.28;2.50;;;18.60;79.30;;;;;;4941291;28;20115;-70
2022/07/31 00:54:48;;;;;;;4.22;3.17;;;18.60;79.50;;;;;;4935433;29;20034;-71
2022/07/31 00:57:14;;;;;;;3.95;2.70;;;18.60;79.80;;;;;;4941485;29;20024;-71
2022/07/31 00:59:41;;;;;;;3.53;3.00;;;18.50;80.10;;;;;;4941092;29;20507;-70
2022/07/31 01:02:07;;;;;;;3.95;2.55;;;18.50;80.40;;;;;;4938449;28;20980;-70
2022/07/31 01:04:33;;;;;;;6.32;3.35;;;18.50;80.60;;;;;;4937974;29;20023;-71
2022/07/31 01:07:01;;;;;;;3.53;3.03;;;18.50;80.50;;;;;;4936565;29;20034;-70
2022/07/31 01:09:28;;;;;;;4.80;2.63;;;18.50;80.60;;;;;;4935230;29;20026;-70
2022/07/31 01:12:15;;;;;;;4.13;3.17;;;18.40;80.80;;;;;;4932176;28;20055;-71
2022/07/31 01:14:47;;;;;;;3.45;2.85;;;18.40;81.20;;;;;;4940383;29;20127;-71
2022/07/31 01:17:14;;;;;;;3.92;3.05;;;18.40;81.30;;;;;;4941502;29;20126;-71
2022/07/31 01:19:43;;;;;;;5.05;3.08;;;18.40;81.00;;;;;;4940741;28;20675;-71
2022/07/31 01:22:44;;;;;;;3.10;2.80;;;18.40;80.90;;;;;;4936115;28;20694;-71
2022/07/31 01:25:23;;;;;;;6.32;2.97;;;18.40;81.10;;;;;;4937986;29;20158;-71
2022/07/31 01:28:46;;;;;;;3.13;2.83;;;18.30;81.40;;;;;;4939020;29;20149;-70
2022/07/31 01:31:24;;;;;;;4.80;2.95;;;18.30;81.80;;;;;;4927815;28;20090;-70
2022/07/31 01:34:12;;;;;;;5.90;2.95;;;18.30;81.90;;;;;;4941826;29;20710;-71
2022/07/31 01:36:49;;;;;;;3.42;2.65;;;18.30;81.80;;;;;;4941876;28;20035;-70
2022/07/31 01:39:16;;;;;;;4.45;3.08;;;18.20;82.10;;;;;;4938865;29;20036;-70
2022/07/31 01:41:45;;;;;;;4.07;3.20;;;18.20;82.30;;;;;;4937915;28;20455;-71
2022/07/31 01:44:14;;;;;;;6.55;3.15;;;18.20;82.30;;;;;;4939858;29;20426;-71
2022/07/31 01:46:42;;;;;;;2.70;2.50;;;18.20;82.50;;;;;;4937325;29;20031;-70
2022/07/31 01:49:11;;;;;;;4.28;2.95;;;18.20;82.70;;;;;;4949992;28;20035;-71
2022/07/31 01:51:40;;;;;;;6.45;3.47;;;18.20;82.90;;;;;;4943557;28;20027;-70
2022/07/31 01:54:07;;;;;;;4.32;2.90;;;18.20;83.00;;;;;;4944854;28;20070;-71
2022/07/31 01:56:34;;;;;;;3.28;3.00;;;18.20;83.00;;;;;;4943075;29;20027;-70
2022/07/31 01:59:01;;;;;;;3.00;2.70;;;18.20;83.10;;;;;;4941320;28;20090;-71
2022/07/31 02:01:50;;;;;;;3.83;2.88;;;18.10;83.10;;;;;;4942036;28;20024;-71
2022/07/31 02:04:18;;;;;;;3.40;2.90;;;18.10;83.20;;;;;;4943269;29;20531;-70
2022/07/31 02:06:49;;;;;;;3.58;2.80;;;18.10;83.30;;;;;;4938249;29;20023;-70
2022/07/31 02:09:18;;;;;;;4.07;3.13;;;18.10;83.50;;;;;;4942665;29;20047;-71
2022/07/31 02:11:44;;;;;;;5.20;3.05;;;18.10;83.60;;;;;;4944247;28;20097;-70
2022/07/31 02:14:11;;;;;;;3.10;2.75;;;18.10;83.80;;;;;;4943371;29;20078;-71
2022/07/31 02:16:37;;;;;;;6.05;2.97;;;18.10;84.10;;;;;;4942582;29;20055;-71
2022/07/31 02:19:13;;;;;;;5.55;3.53;;;18.10;84.40;;;;;;4941517;29;20032;-70
2022/07/31 02:21:40;;;;;;;3.97;3.40;;;18.10;83.20;;;;;;4940744;28;20038;-71
2022/07/31 02:24:07;;;;;;;3.92;3.30;;;18.10;83.30;;;;;;4940054;29;20039;-70
2022/07/31 02:26:35;;;;;;;6.40;3.17;;;18.00;83.30;;;;;;4940670;28;20113;-71
2022/07/31 02:29:02;;;;;;;4.78;3.03;;;18.00;83.60;;;;;;4941625;28;20611;-71
2022/07/31 02:31:31;;;;;;;5.55;3.60;;;17.90;83.90;;;;;;4947894;28;20035;-70
2022/07/31 02:33:57;;;;;;;3.63;3.00;;;17.90;84.30;;;;;;4938428;29;20516;-71
2022/07/31 02:36:24;;;;;;;5.20;3.38;;;17.90;84.40;;;;;;4944655;28;20078;-71
2022/07/31 02:38:52;;;;;;;3.40;2.88;;;17.90;84.40;;;;;;4943153;28;20055;-70
2022/07/31 02:41:20;;;;;;;4.13;3.70;;;17.80;84.40;;;;;;4938810;29;20169;-71
2022/07/31 02:43:46;;;;;;;6.18;4.10;;;17.80;84.40;;;;;;4938769;29;20046;-70
2022/07/31 02:46:19;;;;;;;4.03;3.30;;;17.80;84.40;;;;;;4945348;29;20182;-70
2022/07/31 02:48:45;;;;;;;4.78;4.20;;;17.80;85.00;;;;;;4945367;29;20027;-70
2022/07/31 02:51:12;;;;;;;6.22;3.63;;;17.70;85.30;;;;;;4944004;28;20075;-70
2022/07/31 02:53:40;;;;;;;3.90;3.55;;;17.70;85.40;;;;;;4942455;29;20031;-70
2022/07/31 02:56:09;;;;;;;4.57;4.05;;;17.70;85.80;;;;;;4941552;28;20039;-70
2022/07/31 02:58:41;;;;;;;6.68;3.95;;;17.60;86.10;;;;;;4942539;29;20031;-70
2022/07/31 03:01:07;;;;;;;6.93;3.60;;;17.60;86.40;;;;;;4938236;28;20034;-70
2022/07/31 03:03:34;;;;;;;6.45;3.67;;;17.60;86.40;;;;;;4935109;29;20409;-70
2022/07/31 03:06:00;;;;;;;4.38;3.80;;;17.60;86.50;;;;;;4938853;29;20039;-71
2022/07/31 03:08:26;;;;;;;5.65;3.85;;;17.60;86.70;;;;;;4944135;29;20031;-71
2022/07/31 03:10:54;;;;;;;4.53;4.10;;;17.60;86.90;;;;;;4940380;29;20428;-71
2022/07/31 03:13:26;;;;;;;4.78;4.10;;;17.60;86.90;;;;;;4941952;29;20063;-70
2022/07/31 03:15:54;;;;;;;4.07;3.67;;;17.60;87.30;;;;;;4942191;28;20031;-70
2022/07/31 03:18:21;;;;;;;3.92;3.60;;;17.60;87.60;;;;;;4942983;29;20512;-70
2022/07/31 03:20:50;;;;;;;4.68;3.90;;;17.60;87.80;;;;;;4938238;28;20874;-70
2022/07/31 03:23:19;;;;;;;5.13;3.88;;;17.60;88.00;;;;;;4942296;29;20036;-70
2022/07/31 03:25:57;;;;;;;5.70;4.00;;;17.50;88.00;;;;;;4944899;29;20035;-71
2022/07/31 03:28:23;;;;;;;4.47;3.67;;;17.50;88.20;;;;;;4944250;29;20039;-70
2022/07/31 03:30:54;;;;;;;3.65;3.30;;;17.50;88.20;;;;;;4944779;28;20027;-71
2022/07/31 03:33:21;;;;;;;4.43;3.75;;;17.50;88.20;;;;;;4938908;28;20066;-70
2022/07/31 03:35:47;;;;;;;5.05;3.85;;;17.50;88.30;;;;;;4940118;29;20186;-70
2022/07/31 03:38:13;;;;;;;5.55;4.20;;;17.50;88.30;;;;;;4952587;28;20119;-70
2022/07/31 03:40:43;;;;;;;4.68;3.78;;;17.50;88.20;;;;;;4940073;28;20039;-70
2022/07/31 03:43:10;;;;;;;5.68;3.88;;;17.50;88.20;;;;;;4934839;29;20123;-70
2022/07/31 03:45:38;;;;;;;4.00;3.60;;;17.40;88.30;;;;;;4943730;29;20035;-70
2022/07/31 03:48:07;;;;;;;6.43;4.05;;;17.40;88.40;;;;;;4942134;29;20032;-70
2022/07/31 03:50:36;;;;;;;4.80;3.80;;;17.40;88.30;;;;;;4942775;29;20024;-70
2022/07/31 03:53:06;;;;;;;5.22;3.63;;;17.40;88.40;;;;;;4938599;29;20392;-70
2022/07/31 03:55:36;;;;;;;3.90;3.28;;;17.40;88.50;;;;;;4943593;29;20035;-71
2022/07/31 03:58:03;;;;;;;7.40;4.38;;;17.40;88.70;;;;;;4937492;28;20039;-70
2022/07/31 04:00:30;;;;;;;4.30;3.90;;;17.40;88.80;;;;;;4943146;29;20543;-70
2022/07/31 04:03:05;;;;;;;4.28;3.85;;;17.30;88.60;;;;;;4940211;28;20579;-70
2022/07/31 04:05:40;;;;;;;4.53;3.28;;;17.30;89.00;;;;;;4945874;29;20074;-70
2022/07/31 04:08:07;;;;;;;4.97;3.95;;;17.30;88.90;;;;;;4944114;29;20035;-70
2022/07/31 04:10:37;;;;;;;4.65;4.07;;;17.40;88.90;;;;;;4942291;29;20035;-70
2022/07/31 04:13:05;;;;;;;5.18;4.55;;;17.30;89.00;;;;;;4939159;29;20035;-70
2022/07/31 04:15:32;;;;;;;5.20;4.00;;;17.30;89.30;;;;;;4953816;28;20028;-70
2022/07/31 04:17:58;;;;;;;5.40;4.28;;;17.30;89.50;;;;;;4940973;29;20040;-70
2022/07/31 04:20:30;;;;;;;4.93;4.40;;;17.30;89.80;;;;;;4935405;29;20031;-70
2022/07/31 04:22:56;;;;;;;5.93;4.20;;;17.30;90.00;;;;;;4942185;28;20593;-70
2022/07/31 04:25:42;;;;;;;5.65;4.13;;;17.30;90.10;;;;;;4941270;29;20020;-70
2022/07/31 04:28:21;;;;;;;5.10;4.13;;;17.40;90.00;;;;;;4939234;29;20125;-70
2022/07/31 04:30:46;;;;;;;4.90;4.35;;;17.40;90.00;;;;;;4940140;28;20505;-70
2022/07/31 04:33:13;;;;;;;4.80;4.20;;;17.40;89.90;;;;;;4935924;29;20039;-70
2022/07/31 04:35:40;;;;;;;5.13;4.57;;;17.50;90.00;;;;;;4937047;28;20031;-70
2022/07/31 04:38:06;;;;;;;4.25;3.75;;;17.50;90.10;;;;;;4952226;28;20036;-70
2022/07/31 04:40:35;;;;;;;4.65;4.20;;;17.50;90.30;;;;;;4942074;29;20030;-70
2022/07/31 04:43:00;;;;;;;4.80;4.35;;;17.50;90.40;;;;;;4939397;29;20043;-71
2022/07/31 04:45:26;;;;;;;5.25;4.32;;;17.60;90.40;;;;;;4941885;29;20089;-70
2022/07/31 04:47:52;;;;;;;4.22;3.85;;;17.60;90.50;;;;;;4939021;29;20070;-70
2022/07/31 04:50:18;;;;;;;5.63;4.22;;;17.70;90.50;;;;;;4938152;29;20059;-70
2022/07/31 04:52:54;;;;;;;;;;;17.70;90.50;;;;;;4938143;29;20510;-70
2022/07/31 04:55:21;;;;;;;5.10;4.03;;;17.80;90.60;;;;;;4935293;29;19918;-70
2022/07/31 04:57:47;;;;;;;5.78;4.30;;;17.80;90.60;;;;;;4941076;29;20067;-70
2022/07/31 05:00:13;;;;;;;4.65;4.25;;;17.80;90.50;;;;;;4937154;29;20035;-70
2022/07/31 05:02:40;;;;;;;5.18;4.68;;;17.90;90.60;;;;;;4941911;28;20735;-70
2022/07/31 05:05:09;;;;;;;5.40;4.70;;;18.00;90.50;;;;;;4941300;29;20043;-71
2022/07/31 05:07:38;;;;;;;5.88;4.78;;;18.10;90.50;;;;;;4939225;29;20027;-70
2022/07/31 05:11:21;;;;;;;5.30;4.45;;;18.10;90.50;;;;;;4939374;29;20069;-70
2022/07/31 05:12:57;;;;;;;6.47;4.20;;;18.10;90.50;;;;;;4937635;28;20142;-71
2022/07/31 05:15:23;;;;;;;6.55;4.53;;;18.20;90.40;;;;;;4934277;29;20574;-70
2022/07/31 05:17:49;;;;;;;7.10;4.80;;;18.20;90.30;;;;;;4932475;29;20027;-70
2022/07/31 05:20:44;;;;;;;5.53;5.03;;;18.30;90.30;;;;;;4887636;28;20161;-71
2022/07/31 05:23:25;;;;;;;5.45;4.47;;;18.40;90.30;;;;;;4940298;29;20508;-71
2022/07/31 05:25:57;;;;;;;5.78;4.57;;;18.50;90.20;;;;;;4935102;29;20036;-71
2022/07/31 05:28:23;;;;;;;4.72;4.28;;;18.60;90.10;;;;;;4936849;28;20035;-70
2022/07/31 05:30:49;;;;;;;5.13;4.63;;;18.70;90.00;;;;;;4941564;28;20027;-70
2022/07/31 05:33:15;;;;;;;5.10;4.38;;;18.80;89.90;;;;;;4939016;29;20118;-71
2022/07/31 05:35:40;;;;;;;4.60;4.20;;;18.80;89.60;;;;;;4940915;29;20038;-71
2022/07/31 05:38:06;;;;;;;6.05;5.00;;;18.90;89.30;;;;;;4941152;29;20121;-70
2022/07/31 05:41:07;;;;;;;6.47;4.90;;;19.00;89.00;;;;;;4935527;28;20241;-71
2022/07/31 05:43:59;;;;;;;5.10;4.30;;;19.10;88.20;;;;;;4936931;29;20122;-70
2022/07/31 05:46:29;;;;;;;5.57;4.60;;;19.30;87.50;;;;;;4941169;29;20218;-70
2022/07/31 05:48:55;;;;;;;5.80;5.05;;;19.40;87.20;;;;;;4935720;29;20043;-70
2022/07/31 05:51:21;;;;;;;6.18;4.70;;;19.50;87.00;;;;;;4939859;28;20024;-70
2022/07/31 05:53:48;;;;;;;5.95;4.85;;;19.60;86.50;;;;;;4933559;29;20440;-70
2022/07/31 05:56:33;;;;;;;6.80;5.10;;;19.70;86.00;;;;;;4935232;29;20071;-70
2022/07/31 05:59:00;;;;;;;5.97;5.15;;;19.80;85.50;;;;;;4953012;28;20031;-70
2022/07/31 06:01:25;;;;;;;6.93;4.50;;;19.90;85.00;;;;;;4939554;28;20043;-70
2022/07/31 06:03:52;;;;;;;3.90;3.60;;;20.00;84.60;;;;;;4941196;29;20122;-70
2022/07/31 06:06:20;;;;;;;6.22;4.43;;;20.10;84.20;;;;;;4937881;29;20467;-71
2022/07/31 06:08:45;;;;;;;4.85;3.75;;;20.20;83.70;;;;;;4938471;28;20099;-70
2022/07/31 06:11:11;;;;;;;4.57;4.18;;;20.20;83.40;;;;;;4938759;28;20028;-70
2022/07/31 06:13:37;;;;;;;5.18;4.32;;;20.30;83.30;;;;;;4933977;29;20141;-71
2022/07/31 06:16:17;;;;;;;4.45;4.05;;;20.40;82.70;;;;;;4941689;29;20050;-70
2022/07/31 06:18:43;;;;;;;4.47;4.07;;;20.50;82.60;;;;;;4940193;29;20027;-71
2022/07/31 06:21:09;;;;;;;4.30;3.85;;;20.50;82.40;;;;;;4939533;28;20147;-71
2022/07/31 06:23:35;;;;;;;4.88;4.38;;;20.60;82.10;;;;;;4955603;28;20126;-70
2022/07/31 06:26:24;;;;;;;6.18;4.40;;;20.70;81.80;;;;;;4936090;28;20103;-70
2022/07/31 06:28:50;;;;;;;4.95;4.25;;;20.80;81.60;;;;;;4936714;29;20027;-71
2022/07/31 06:31:18;;;;;;;5.95;4.35;;;20.90;81.30;;;;;;4932819;28;20027;-71
2022/07/31 06:33:44;;;;;;;6.20;5.25;;;20.90;81.20;;;;;;4933069;28;20047;-71
2022/07/31 06:36:10;;;;;;;6.75;4.47;;;21.00;80.80;;;;;;4940511;29;20043;-70
2022/07/31 06:38:39;;;;;;;5.00;4.50;;;21.10;80.80;;;;;;4939128;28;20042;-71
2022/07/31 06:44:27;;;;;;;5.53;4.93;;;21.20;80.00;;;;;;4941195;29;20737;-70
2022/07/31 06:47:12;;;;;;;5.57;4.50;;;21.30;79.20;;;;;;4937429;29;20046;-71
2022/07/31 06:49:58;;;;;;;;;;;21.40;78.80;;;;;;4933378;29;20046;-71
2022/07/31 06:52:26;;;;;;;4.00;3.70;;;21.40;79.00;;;;;;4936701;29;19919;-71
2022/07/31 06:54:53;;;;;;;4.82;3.78;;;21.50;79.00;;;;;;4941175;29;20038;-71
2022/07/31 06:57:19;;;;;;;6.72;4.40;;;21.60;78.50;;;;;;4944084;28;20415;-71
2022/07/31 06:59:45;;;;;;;4.25;3.72;;;21.70;78.30;;;;;;4942810;29;20027;-70
2022/07/31 07:02:11;;;;;;;4.60;4.20;;;21.80;78.20;;;;;;4938910;28;20083;-70
2022/07/31 07:04:38;;;;;;;5.38;3.78;;;21.90;77.80;;;;;;4956603;28;20138;-70
2022/07/31 07:07:05;;;;;;;5.43;3.67;;;21.90;77.00;;;;;;4936618;29;20035;-71
2022/07/31 07:09:31;;;;;;;5.40;4.85;;;22.00;76.60;;;;;;4938578;29;20518;-70
2022/07/31 07:11:57;;;;;;;11.30;4.32;;;22.10;76.80;;;;;;4944373;28;20054;-70
2022/07/31 07:14:24;;;;;;;5.32;3.90;;;22.20;76.30;;;;;;4944378;29;20032;-70
2022/07/31 07:16:50;;;;;;;4.35;3.35;;;22.30;76.00;;;;;;4942887;29;20030;-70
2022/07/31 07:19:16;;;;;;;7.13;3.95;;;22.40;75.60;;;;;;4943128;29;20507;-71
2022/07/31 07:21:44;;;;;;;6.47;3.80;;;22.50;75.10;;;;;;4944244;28;20023;-69
2022/07/31 07:24:10;;;;;;;5.20;3.80;;;22.70;74.50;;;;;;4938895;28;20105;-70
2022/07/31 07:26:46;;;;;;;4.25;3.88;;;22.70;73.90;;;;;;4944223;29;20698;-70
2022/07/31 07:29:11;;;;;;;4.90;3.95;;;22.80;73.80;;;;;;4936637;29;20031;-70
2022/07/31 07:31:37;;;;;;;5.35;3.90;;;22.90;73.80;;;;;;4948051;28;20128;-71
2022/07/31 07:34:05;;;;;;;6.78;3.60;;;23.00;73.10;;;;;;4944380;29;20032;-71
2022/07/31 07:36:32;;;;;;;4.18;3.70;;;23.00;72.10;;;;;;4942522;29;20031;-71
2022/07/31 07:39:03;;;;;;;6.18;3.72;;;23.10;71.70;;;;;;4942917;29;20042;-70
2022/07/31 07:41:31;;;;;;;4.68;3.95;;;23.10;71.40;;;;;;4942403;28;20191;-70
2022/07/31 07:43:58;;;;;;;4.53;3.38;;;23.30;71.00;;;;;;4937112;29;20494;-71
2022/07/31 07:46:26;;;;;;;6.45;4.28;;;23.30;70.80;;;;;;4944005;29;20035;-70
2022/07/31 07:48:56;;;;;;;6.18;4.22;;;23.40;71.00;;;;;;4941776;29;20123;-70
2022/07/31 07:51:51;;;;;;;3.85;3.45;;;23.40;70.60;;;;;;4933815;28;20039;-71
2022/07/31 07:54:47;;;;;;;7.47;4.40;;;23.50;70.40;;;;;;4938243;29;20035;-70
2022/07/31 07:57:25;;;;;;;5.35;3.95;;;23.60;70.40;;;;;;4942112;29;20064;-70
2022/07/31 08:00:10;;;;;;;5.75;3.40;;;23.70;70.00;;;;;;4939606;29;20122;-71
2022/07/31 08:02:43;;;;;;;5.20;3.55;;;23.90;69.20;;;;;;4938722;29;20035;-70
2022/07/31 08:05:11;;;;;;;5.15;3.90;;;24.10;68.70;;;;;;4953481;28;20036;-71
2022/07/31 08:07:39;;;;;;;5.82;3.70;;;24.30;68.10;;;;;;4936135;29;20129;-71
2022/07/31 08:10:18;;;;;;;5.78;4.00;;;24.40;66.80;;;;;;4941615;29;20500;-71
2022/07/31 08:12:53;;;;;;;5.50;3.73;;;24.50;66.80;;;;;;4957645;28;20167;-71
2022/07/31 08:15:28;;;;;;;4.03;3.30;;;24.60;66.40;;;;;;4941674;29;20840;-70
2022/07/31 08:18:08;;;;;;;4.40;3.08;;;24.70;66.20;;;;;;4941397;29;20039;-71
2022/07/31 08:20:39;;;;;;;4.78;2.85;;;24.80;66.00;;;;;;4938609;29;20027;-71
2022/07/31 08:23:05;;;;;;;4.85;3.10;;;25.00;65.60;;;;;;4933782;28;20055;-71
2022/07/31 08:25:32;;;;;;;4.97;3.03;;;25.10;64.90;;;;;;4938096;28;20031;-70
2022/07/31 08:27:57;;;;;;;3.17;2.70;;;25.20;63.80;;;;;;4943172;29;20034;-70
2022/07/31 08:30:24;;;;;;;5.75;2.85;;;25.30;63.60;;;;;;4945480;28;20040;-70
2022/07/31 08:32:51;;;;;;;5.20;2.92;;;25.30;63.10;;;;;;4942684;28;20039;-71
2022/07/31 08:35:33;;;;;;;3.08;2.78;;;25.40;63.30;;;;;;4942803;29;20035;-68
2022/07/31 08:37:58;;;;;;;3.53;3.15;;;25.50;63.50;;;;;;4939669;29;20038;-68
2022/07/31 08:40:28;;;;;;;8.95;3.30;;;25.50;63.60;;;;;;4943034;29;20094;-68
2022/07/31 08:42:55;;;;;;;5.07;3.22;;;25.60;63.40;;;;;;4940378;28;20121;-68
2022/07/31 08:45:21;;;;;;;7.10;2.97;;;25.60;63.30;;;;;;4934098;29;20087;-68
2022/07/31 08:48:03;;;;;;;3.72;3.28;;;25.60;62.60;;;;;;4939031;29;20042;-68
2022/07/31 08:50:38;;;;;;;5.60;3.20;;;25.60;62.20;;;;;;4938227;29;20114;-68
2022/07/31 08:53:15;;;;;;;3.47;3.17;;;25.60;62.50;;;;;;4938026;29;20031;-68
2022/07/31 08:55:59;;;;;;;3.20;2.90;;;25.60;62.60;;;;;;4937041;29;20133;-68
2022/07/31 08:58:28;;;;;;;4.60;3.33;;;25.60;61.80;;;;;;4937348;29;20027;-68
2022/07/31 09:00:54;;;;;;;3.17;2.60;;;25.60;62.00;;;;;;4934861;28;20818;-68
2022/07/31 09:03:20;;;;;;;3.83;3.00;;;25.60;62.20;;;;;;4934742;28;20039;-68
2022/07/31 09:05:56;;;;;;;6.38;2.53;;;25.70;61.80;;;;;;4934980;29;20098;-68
2022/07/31 09:08:22;;;;;;;4.47;3.00;;;25.70;61.70;;;;;;4941780;29;20061;-68
2022/07/31 09:11:04;;;;;;;101.70;7.75;;;25.80;61.80;;;;;;4936624;29;20397;-66
2022/07/31 09:13:33;;;;;;;5.03;2.78;;;25.90;60.90;;;;;;4942097;29;20027;-66
2022/07/31 09:16:01;;;;;;;3.25;2.38;;;25.90;60.80;;;;;;4940566;29;20043;-67
2022/07/31 09:18:29;;;;;;;7.18;3.13;;;26.00;60.20;;;;;;4942277;29;20566;-67
2022/07/31 09:21:04;;;;;;;5.10;2.85;;;26.10;60.10;;;;;;4935885;28;20039;-67
2022/07/31 09:23:31;;;;;;;6.18;2.53;;;26.20;59.90;;;;;;4941493;29;20030;-67
2022/07/31 09:26:04;;;;;;;5.90;2.85;;;26.20;59.60;;;;;;4942705;29;20037;-67
2022/07/31 09:28:38;;;;;;;3.35;2.80;;;26.40;59.30;;;;;;4937395;29;20027;-67
2022/07/31 09:31:06;;;;;;;3.88;2.75;;;26.50;58.30;;;;;;4943405;28;20035;-67
2022/07/31 09:33:51;;;;;;;5.18;2.90;;;26.50;58.40;;;;;;4938003;29;20098;-67
2022/07/31 09:36:43;;;;;;;3.72;2.42;;;26.50;58.40;;;;;;4937894;29;20035;-67
2022/07/31 09:39:32;;;;;;;5.35;3.00;;;26.70;58.50;;;;;;4932007;29;20127;-67
2022/07/31 09:42:17;;;;;;;3.75;2.95;;;26.70;58.50;;;;;;4934334;29;20063;-67
2022/07/31 09:44:56;;;;;;;8.52;3.10;;;26.80;57.90;;;;;;4941678;29;20551;-67
2022/07/31 09:47:25;;;;;;;4.72;2.83;;;26.80;58.40;;;;;;4941380;29;20126;-67
2022/07/31 09:49:54;;;;;;;3.80;2.92;;;26.80;57.80;;;;;;4932691;29;20114;-67
2022/07/31 09:52:21;;;;;;;5.90;3.25;;;26.90;57.70;;;;;;4937766;28;20059;-67
2022/07/31 09:54:47;;;;;;;5.70;3.15;;;27.00;57.70;;;;;;4941936;29;20463;-67
2022/07/31 09:57:27;;;;;;;3.15;2.80;;;27.10;57.00;;;;;;4942065;29;20708;-67
2022/07/31 09:59:55;;;;;;;4.32;2.95;;;27.20;57.40;;;;;;4940248;29;20556;-67
2022/07/31 10:02:24;;;;;;;3.90;3.22;;;27.20;57.80;;;;;;4938175;29;20073;-67
2022/07/31 10:04:53;;;;;;;6.03;3.17;;;27.30;57.40;;;;;;4940937;29;20587;-66
2022/07/31 10:07:24;;;;;;;4.15;2.90;;;27.40;56.90;;;;;;4941099;29;20074;-67
2022/07/31 10:09:54;;;;;;;6.20;2.58;;;27.40;55.50;;;;;;4952989;28;20760;-66
2022/07/31 10:12:50;;;;;;;3.97;2.35;;;27.60;55.30;;;;;;4932474;29;20207;-66
2022/07/31 10:15:17;;;;;;;7.55;2.90;;;27.60;55.20;;;;;;4937361;29;20039;-67
2022/07/31 10:17:53;;;;;;;3.75;2.70;;;27.70;54.50;;;;;;4938139;28;20023;-66
2022/07/31 10:20:35;;;;;;;4.60;2.72;;;27.60;55.10;;;;;;4942563;29;20078;-67
2022/07/31 10:23:22;;;;;;;4.00;2.38;;;27.70;54.80;;;;;;4945630;29;20114;-67
2022/07/31 10:25:55;;;;;;;5.22;2.83;;;27.70;54.60;;;;;;4959691;28;20038;-67
2022/07/31 10:28:22;;;;;;;3.63;2.33;;;27.80;54.30;;;;;;4957235;28;20036;-67
2022/07/31 10:30:49;;;;;;;4.88;2.35;;;27.90;53.50;;;;;;4941813;28;20058;-67
2022/07/31 10:33:16;;;;;;;3.58;2.67;;;28.00;53.60;;;;;;4937975;29;20480;-66
2022/07/31 10:36:12;;;;;;;4.00;2.65;;;28.10;52.90;;;;;;4922208;29;20043;-67
2022/07/31 10:39:23;;;;;;;4.10;2.50;;;28.20;52.60;;;;;;4940811;29;20035;-67
2022/07/31 10:42:17;;;;;;;5.93;2.50;;;28.20;52.90;;;;;;4938321;28;20032;-67
2022/07/31 10:44:49;;;;;;;5.22;2.30;;;28.30;51.70;;;;;;4944710;28;20035;-68
2022/07/31 10:47:24;;;;;;;4.10;2.25;;;28.30;51.50;;;;;;4945142;28;20091;-67
2022/07/31 10:50:23;;;;;;;3.20;2.47;;;28.40;51.60;;;;;;4942583;28;20028;-67
2022/07/31 10:53:14;;;;;;;3.47;2.47;;;28.50;51.00;;;;;;4942629;28;20039;-67
2022/07/31 10:56:03;;;;;;;5.25;2.40;;;28.50;50.60;;;;;;4937295;29;20071;-67
2022/07/31 10:58:49;;;;;;;4.43;2.30;;;28.50;51.70;;;;;;4943007;29;20122;-67
2022/07/31 11:01:51;;;;;;;4.53;2.40;;;28.70;50.60;;;;;;4942988;28;20031;-67
2022/07/31 11:04:52;;;;;;;2.13;1.90;;;28.80;50.10;;;;;;4886576;29;20036;-67
2022/07/31 11:07:34;;;;;;;2.83;1.90;;;28.70;49.90;;;;;;4945463;28;20073;-67
2022/07/31 11:10:15;;;;;;;2.88;2.00;;;28.60;49.70;;;;;;4938402;29;20798;-67
2022/07/31 11:13:04;;;;;;;3.80;1.95;;;28.50;50.40;;;;;;4938115;29;20070;-67
2022/07/31 11:15:51;;;;;;;2.28;2.10;;;28.60;49.90;;;;;;4938444;29;20754;-67
2022/07/31 11:18:35;;;;;;;3.67;2.10;;;28.60;49.50;;;;;;4942571;29;20042;-67
2022/07/31 11:21:08;;;;;;;5.28;1.98;;;28.70;49.60;;;;;;4943935;28;20434;-67
2022/07/31 11:23:35;;;;;;;4.00;2.00;;;28.80;49.10;;;;;;4944755;29;20106;-67
2022/07/31 11:26:05;;;;;;;8.75;2.50;;;28.90;49.10;;;;;;4939714;28;20038;-67
2022/07/31 11:28:32;;;;;;;7.40;2.35;;;29.10;49.20;;;;;;4940184;29;20031;-67
2022/07/31 11:31:01;;;;;;;2.47;1.55;;;29.20;48.70;;;;;;4942065;28;20114;-67
2022/07/31 11:33:28;;;;;;;3.50;2.20;;;29.10;48.00;;;;;;4938760;29;20035;-67
2022/07/31 11:35:54;;;;;;;2.67;1.88;;;29.20;47.60;;;;;;4934654;29;20058;-67
2022/07/31 11:38:28;;;;;;;3.45;1.75;;;29.30;47.10;;;;;;4943616;29;20035;-66
2022/07/31 11:40:54;;;;;;;3.08;1.92;;;29.40;46.80;;;;;;4943974;28;20031;-67
2022/07/31 11:43:20;;;;;;;5.82;1.70;;;29.40;46.60;;;;;;4941252;29;20086;-67
2022/07/31 11:45:47;;;;;;;4.38;1.80;;;29.50;46.40;;;;;;4942164;28;20031;-67
2022/07/31 11:48:14;;;;;;;4.18;1.98;;;29.60;46.60;;;;;;4938726;29;20032;-67
2022/07/31 11:50:41;;;;;;;2.15;1.75;;;29.60;46.60;;;;;;4936565;29;20392;-67
2022/07/31 11:53:07;;;;;;;3.42;2.10;;;29.60;46.30;;;;;;4934525;29;20043;-67
2022/07/31 11:55:46;;;;;;;3.55;2.10;;;29.70;46.10;;;;;;4941523;28;20031;-67
2022/07/31 11:58:14;;;;;;;3.67;1.80;;;29.70;46.80;;;;;;4944080;28;20047;-67
2022/07/31 12:00:48;;;;;;;2.80;1.92;;;29.50;47.20;;;;;;4943333;29;20432;-67
2022/07/31 12:03:16;;;;;;;2.97;1.73;;;29.40;46.80;;;;;;4940237;29;20047;-67
2022/07/31 12:05:46;;;;;;;1.98;1.70;;;29.50;47.30;;;;;;4940498;29;20031;-67
2022/07/31 12:08:12;;;;;;;1.90;1.35;;;29.50;45.10;;;;;;4937233;29;20028;-67
2022/07/31 12:10:39;;;;;;;2.55;1.60;;;29.60;44.50;;;;;;4936961;29;20031;-67
2022/07/31 12:13:16;;;;;;;2.83;1.50;;;29.70;43.50;;;;;;4933164;29;20568;-67
2022/07/31 12:15:57;;;;;;;2.85;1.67;;;29.70;43.40;;;;;;4944181;28;20035;-67
2022/07/31 12:18:24;;;;;;;6.63;1.73;;;29.60;43.90;;;;;;4942316;28;20393;-67
2022/07/31 12:20:54;;;;;;;2.92;1.63;;;29.60;43.80;;;;;;4942178;28;20093;-67
2022/07/31 12:23:20;;;;;;;2.47;1.55;;;29.50;43.60;;;;;;4939340;29;20571;-67
2022/07/31 12:25:46;;;;;;;3.83;1.60;;;29.50;43.50;;;;;;4939650;28;20535;-67
2022/07/31 12:28:13;;;;;;;1.90;1.60;;;29.50;43.50;;;;;;4936651;29;20051;-67
2022/07/31 12:30:40;;;;;;;5.85;1.58;;;29.60;43.80;;;;;;4937984;28;20031;-67
2022/07/31 12:33:07;;;;;;;3.90;1.50;;;29.60;43.40;;;;;;4936547;29;20112;-67
2022/07/31 12:35:41;;;;;;;1.98;1.60;;;29.50;43.60;;;;;;4943586;28;20037;-67
2022/07/31 12:38:07;;;;;;;2.75;1.48;;;29.50;44.30;;;;;;4940786;28;20039;-67
2022/07/31 12:40:33;;;;;;;3.95;1.58;;;29.40;44.20;;;;;;4941509;28;20175;-67
2022/07/31 12:42:59;;;;;;;3.85;1.60;;;29.50;44.90;;;;;;4938360;28;20039;-67
2022/07/31 12:45:29;;;;;;;2.88;1.40;;;29.40;43.90;;;;;;4938146;29;20496;-67
2022/07/31 12:47:55;;;;;;;3.65;1.70;;;29.30;43.60;;;;;;4936031;28;20099;-67
2022/07/31 12:50:26;;;;;;;2.85;1.70;;;29.20;44.90;;;;;;4935914;29;20580;-67
2022/07/31 12:52:52;;;;;;;2.80;1.40;;;29.20;45.40;;;;;;4939318;29;20791;-67
2022/07/31 12:55:18;;;;;;;3.60;1.65;;;29.30;44.70;;;;;;4941953;29;20050;-67
2022/07/31 12:57:45;;;;;;;2.05;1.65;;;29.20;44.00;;;;;;4941706;28;20417;-67
2022/07/31 13:00:11;;;;;;;2.75;1.80;;;29.10;43.90;;;;;;4938310;28;20039;-67
2022/07/31 13:02:37;;;;;;;1.80;1.70;;;29.10;44.30;;;;;;4944882;28;20031;-67
2022/07/31 13:05:02;;;;;;;3.78;1.52;;;29.10;45.30;;;;;;4938576;28;20059;-67
2022/07/31 13:07:29;;;;;;;2.08;1.48;;;29.10;45.00;;;;;;4939661;29;20531;-67
2022/07/31 13:09:55;;;;;;;4.38;1.50;;;29.20;45.20;;;;;;4940977;29;20560;-67
2022/07/31 13:12:20;;;;;;;2.05;1.50;;;29.30;45.00;;;;;;4940991;28;20134;-67